sensor_id;sensor_type;location;lat;lon;timestamp;P1;durP1;ratioP1;P2;durP2;ratioP2
68800;SDS011;55784;50.734;7.086;2022-12-18T00:01:32;24.05;;;6.75;;
68800;SDS011;55784;50.734;7.086;2022-12-18T00:03:58;21.40;;;6.60;;
68800;SDS011;55784;50.734;7.086;2022-12-18T00:06:26;21.75;;;6.75;;
68800;SDS011;55784;50.734;7.086;2022-12-18T00:08:53;25.92;;;6.75;;
68800;SDS011;55784;50.734;7.086;2022-12-18T00:11:21;22.40;;;7.22;;
68800;SDS011;55784;50.734;7.086;2022-12-18T00:13:48;24.33;;;7.05;;
68800;SDS011;55784;50.734;7.086;2022-12-18T00:16:14;27.17;;;7.60;;
68800;SDS011;55784;50.734;7.086;2022-12-18T00:18:41;26.67;;;7.63;;
68800;SDS011;55784;50.734;7.086;2022-12-18T00:21:08;26.17;;;7.90;;
68800;SDS011;55784;50.734;7.086;2022-12-18T00:23:35;23.80;;;7.82;;
68800;SDS011;55784;50.734;7.086;2022-12-18T00:26:02;24.90;;;7.65;;
68800;SDS011;55784;50.734;7.086;2022-12-18T00:28:29;27.33;;;8.20;;
68800;SDS011;55784;50.734;7.086;2022-12-18T00:33:27;22.33;;;7.53;;
68800;SDS011;55784;50.734;7.086;2022-12-18T00:35:53;25.40;;;7.90;;
68800;SDS011;55784;50.734;7.086;2022-12-18T00:38:18;30.67;;;8.17;;
68800;SDS011;55784;50.734;7.086;2022-12-18T00:40:43;27.77;;;8.17;;
68800;SDS011;55784;50.734;7.086;2022-12-18T00:43:09;28.03;;;7.80;;
68800;SDS011;55784;50.734;7.086;2022-12-18T00:45:34;22.88;;;7.05;;
68800;SDS011;55784;50.734;7.086;2022-12-18T00:47:59;25.65;;;7.95;;
68800;SDS011;55784;50.734;7.086;2022-12-18T00:50:25;25.87;;;8.00;;
68800;SDS011;55784;50.734;7.086;2022-12-18T00:52:51;24.93;;;7.63;;
68800;SDS011;55784;50.734;7.086;2022-12-18T00:55:16;24.15;;;7.15;;
68800;SDS011;55784;50.734;7.086;2022-12-18T00:57:42;23.63;;;7.80;;
68800;SDS011;55784;50.734;7.086;2022-12-18T01:00:09;28.20;;;8.30;;
68800;SDS011;55784;50.734;7.086;2022-12-18T01:02:37;25.65;;;8.25;;
68800;SDS011;55784;50.734;7.086;2022-12-18T01:05:04;26.63;;;8.63;;
68800;SDS011;55784;50.734;7.086;2022-12-18T01:07:29;26.20;;;8.27;;
68800;SDS011;55784;50.734;7.086;2022-12-18T01:09:55;26.15;;;8.82;;
68800;SDS011;55784;50.734;7.086;2022-12-18T01:12:20;27.37;;;8.60;;
68800;SDS011;55784;50.734;7.086;2022-12-18T01:14:45;30.83;;;8.30;;
68800;SDS011;55784;50.734;7.086;2022-12-18T01:17:11;20.97;;;6.97;;
68800;SDS011;55784;50.734;7.086;2022-12-18T01:19:36;28.23;;;8.20;;
68800;SDS011;55784;50.734;7.086;2022-12-18T01:22:01;21.40;;;7.10;;
68800;SDS011;55784;50.734;7.086;2022-12-18T01:24:27;24.87;;;8.03;;
68800;SDS011;55784;50.734;7.086;2022-12-18T01:26:52;24.00;;;7.57;;
68800;SDS011;55784;50.734;7.086;2022-12-18T01:29:17;30.60;;;8.67;;
68800;SDS011;55784;50.734;7.086;2022-12-18T01:31:43;29.30;;;7.17;;
68800;SDS011;55784;50.734;7.086;2022-12-18T01:34:08;25.60;;;8.15;;
68800;SDS011;55784;50.734;7.086;2022-12-18T01:36:35;22.47;;;7.20;;
68800;SDS011;55784;50.734;7.086;2022-12-18T01:39:04;23.85;;;7.32;;
68800;SDS011;55784;50.734;7.086;2022-12-18T01:41:31;26.58;;;7.18;;
68800;SDS011;55784;50.734;7.086;2022-12-18T01:47:29;26.80;;;7.82;;
68800;SDS011;55784;50.734;7.086;2022-12-18T01:50:05;26.53;;;7.37;;
68800;SDS011;55784;50.734;7.086;2022-12-18T01:52:39;28.35;;;7.47;;
68800;SDS011;55784;50.734;7.086;2022-12-18T01:55:07;21.95;;;6.72;;
68800;SDS011;55784;50.734;7.086;2022-12-18T01:57:34;25.77;;;6.90;;
68800;SDS011;55784;50.734;7.086;2022-12-18T02:00:02;27.83;;;7.90;;
68800;SDS011;55784;50.734;7.086;2022-12-18T02:02:33;24.50;;;7.73;;
68800;SDS011;55784;50.734;7.086;2022-12-18T02:04:59;27.20;;;7.43;;
68800;SDS011;55784;50.734;7.086;2022-12-18T02:15:37;24.88;;;7.22;;
68800;SDS011;55784;50.734;7.086;2022-12-18T02:18:11;23.98;;;6.97;;
68800;SDS011;55784;50.734;7.086;2022-12-18T02:20:47;24.43;;;6.93;;
68800;SDS011;55784;50.734;7.086;2022-12-18T02:26:30;22.83;;;7.05;;
68800;SDS011;55784;50.734;7.086;2022-12-18T02:29:08;28.85;;;8.23;;
68800;SDS011;55784;50.734;7.086;2022-12-18T02:31:40;28.27;;;8.18;;
68800;SDS011;55784;50.734;7.086;2022-12-18T02:34:10;28.07;;;8.20;;
68800;SDS011;55784;50.734;7.086;2022-12-18T02:36:38;28.48;;;8.35;;
68800;SDS011;55784;50.734;7.086;2022-12-18T02:39:07;25.92;;;7.97;;
68800;SDS011;55784;50.734;7.086;2022-12-18T02:41:35;27.08;;;8.02;;
68800;SDS011;55784;50.734;7.086;2022-12-18T02:44:06;25.58;;;7.18;;
68800;SDS011;55784;50.734;7.086;2022-12-18T02:55:04;23.60;;;6.68;;
68800;SDS011;55784;50.734;7.086;2022-12-18T02:57:58;22.58;;;7.35;;
68800;SDS011;55784;50.734;7.086;2022-12-18T03:03:55;22.75;;;5.97;;
68800;SDS011;55784;50.734;7.086;2022-12-18T03:06:37;21.40;;;5.88;;
68800;SDS011;55784;50.734;7.086;2022-12-18T03:09:07;23.40;;;6.75;;
68800;SDS011;55784;50.734;7.086;2022-12-18T03:11:37;25.10;;;6.50;;
68800;SDS011;55784;50.734;7.086;2022-12-18T03:14:23;25.07;;;7.40;;
68800;SDS011;55784;50.734;7.086;2022-12-18T03:16:54;27.85;;;7.90;;
68800;SDS011;55784;50.734;7.086;2022-12-18T03:19:24;23.17;;;7.50;;
68800;SDS011;55784;50.734;7.086;2022-12-18T03:21:53;24.50;;;6.90;;
68800;SDS011;55784;50.734;7.086;2022-12-18T03:24:21;21.35;;;6.15;;
68800;SDS011;55784;50.734;7.086;2022-12-18T03:26:50;23.60;;;6.70;;
68800;SDS011;55784;50.734;7.086;2022-12-18T03:31:58;23.83;;;6.60;;
68800;SDS011;55784;50.734;7.086;2022-12-18T03:34:37;22.60;;;6.43;;
68800;SDS011;55784;50.734;7.086;2022-12-18T03:37:05;22.08;;;6.35;;
68800;SDS011;55784;50.734;7.086;2022-12-18T03:39:31;21.80;;;6.37;;
68800;SDS011;55784;50.734;7.086;2022-12-18T03:44:31;23.25;;;6.40;;
68800;SDS011;55784;50.734;7.086;2022-12-18T03:47:39;24.92;;;6.30;;
68800;SDS011;55784;50.734;7.086;2022-12-18T03:50:21;23.00;;;6.18;;
68800;SDS011;55784;50.734;7.086;2022-12-18T03:53:14;23.17;;;6.20;;
68800;SDS011;55784;50.734;7.086;2022-12-18T03:56:00;21.27;;;5.93;;
68800;SDS011;55784;50.734;7.086;2022-12-18T03:58:26;23.45;;;6.40;;
68800;SDS011;55784;50.734;7.086;2022-12-18T04:00:55;22.70;;;6.50;;
68800;SDS011;55784;50.734;7.086;2022-12-18T04:03:24;24.58;;;6.20;;
68800;SDS011;55784;50.734;7.086;2022-12-18T04:05:52;21.97;;;7.17;;
68800;SDS011;55784;50.734;7.086;2022-12-18T04:08:19;26.00;;;6.97;;
68800;SDS011;55784;50.734;7.086;2022-12-18T04:10:46;20.35;;;6.03;;
68800;SDS011;55784;50.734;7.086;2022-12-18T04:13:12;23.63;;;6.77;;
68800;SDS011;55784;50.734;7.086;2022-12-18T04:15:37;21.50;;;6.57;;
68800;SDS011;55784;50.734;7.086;2022-12-18T04:18:03;28.50;;;6.97;;
68800;SDS011;55784;50.734;7.086;2022-12-18T04:20:29;23.23;;;6.65;;
68800;SDS011;55784;50.734;7.086;2022-12-18T04:22:54;23.97;;;6.10;;
68800;SDS011;55784;50.734;7.086;2022-12-18T04:25:20;24.57;;;6.93;;
68800;SDS011;55784;50.734;7.086;2022-12-18T04:27:45;23.57;;;6.77;;
68800;SDS011;55784;50.734;7.086;2022-12-18T04:30:11;21.23;;;5.93;;
68800;SDS011;55784;50.734;7.086;2022-12-18T04:32:36;24.10;;;6.00;;
68800;SDS011;55784;50.734;7.086;2022-12-18T04:35:02;25.30;;;6.30;;
68800;SDS011;55784;50.734;7.086;2022-12-18T04:37:29;19.63;;;5.72;;
68800;SDS011;55784;50.734;7.086;2022-12-18T04:39:54;21.73;;;5.93;;
68800;SDS011;55784;50.734;7.086;2022-12-18T04:42:20;22.43;;;6.63;;
68800;SDS011;55784;50.734;7.086;2022-12-18T04:44:45;23.02;;;6.85;;
68800;SDS011;55784;50.734;7.086;2022-12-18T04:47:11;24.00;;;6.70;;
68800;SDS011;55784;50.734;7.086;2022-12-18T04:49:36;21.40;;;6.20;;
68800;SDS011;55784;50.734;7.086;2022-12-18T04:52:01;22.07;;;7.20;;
68800;SDS011;55784;50.734;7.086;2022-12-18T04:54:27;24.27;;;6.93;;
68800;SDS011;55784;50.734;7.086;2022-12-18T04:56:52;24.73;;;7.07;;
68800;SDS011;55784;50.734;7.086;2022-12-18T04:59:18;22.90;;;6.93;;
68800;SDS011;55784;50.734;7.086;2022-12-18T05:01:43;24.20;;;6.53;;
68800;SDS011;55784;50.734;7.086;2022-12-18T05:04:08;24.20;;;7.13;;
68800;SDS011;55784;50.734;7.086;2022-12-18T05:06:34;22.85;;;6.60;;
68800;SDS011;55784;50.734;7.086;2022-12-18T05:08:59;22.87;;;6.67;;
68800;SDS011;55784;50.734;7.086;2022-12-18T05:11:24;26.40;;;6.90;;
68800;SDS011;55784;50.734;7.086;2022-12-18T05:13:49;24.10;;;6.30;;
68800;SDS011;55784;50.734;7.086;2022-12-18T05:16:15;21.73;;;6.40;;
68800;SDS011;55784;50.734;7.086;2022-12-18T05:18:40;24.57;;;6.70;;
68800;SDS011;55784;50.734;7.086;2022-12-18T05:21:06;24.70;;;7.17;;
68800;SDS011;55784;50.734;7.086;2022-12-18T05:23:31;21.25;;;6.10;;
68800;SDS011;55784;50.734;7.086;2022-12-18T05:25:58;21.83;;;6.37;;
68800;SDS011;55784;50.734;7.086;2022-12-18T05:28:25;24.70;;;7.37;;
68800;SDS011;55784;50.734;7.086;2022-12-18T05:30:53;24.27;;;6.82;;
68800;SDS011;55784;50.734;7.086;2022-12-18T05:33:21;24.33;;;7.03;;
68800;SDS011;55784;50.734;7.086;2022-12-18T05:35:50;24.63;;;6.88;;
68800;SDS011;55784;50.734;7.086;2022-12-18T05:38:17;21.80;;;6.63;;
68800;SDS011;55784;50.734;7.086;2022-12-18T05:40:43;26.87;;;7.80;;
68800;SDS011;55784;50.734;7.086;2022-12-18T05:43:09;26.03;;;6.43;;
68800;SDS011;55784;50.734;7.086;2022-12-18T05:45:36;23.10;;;6.35;;
68800;SDS011;55784;50.734;7.086;2022-12-18T05:48:05;27.00;;;7.63;;
68800;SDS011;55784;50.734;7.086;2022-12-18T05:50:33;22.35;;;6.88;;
68800;SDS011;55784;50.734;7.086;2022-12-18T05:52:59;22.63;;;6.93;;
68800;SDS011;55784;50.734;7.086;2022-12-18T05:55:25;25.03;;;7.07;;
68800;SDS011;55784;50.734;7.086;2022-12-18T05:57:51;26.13;;;7.55;;
68800;SDS011;55784;50.734;7.086;2022-12-18T06:00:16;22.53;;;6.17;;
68800;SDS011;55784;50.734;7.086;2022-12-18T06:02:41;25.67;;;7.73;;
68800;SDS011;55784;50.734;7.086;2022-12-18T06:05:07;26.00;;;7.27;;
68800;SDS011;55784;50.734;7.086;2022-12-18T06:07:32;24.13;;;6.82;;
68800;SDS011;55784;50.734;7.086;2022-12-18T06:09:58;27.40;;;7.50;;
68800;SDS011;55784;50.734;7.086;2022-12-18T06:12:23;23.03;;;6.97;;
68800;SDS011;55784;50.734;7.086;2022-12-18T06:14:48;21.83;;;6.63;;
68800;SDS011;55784;50.734;7.086;2022-12-18T06:17:14;25.07;;;6.50;;
68800;SDS011;55784;50.734;7.086;2022-12-18T06:19:39;27.47;;;7.30;;
68800;SDS011;55784;50.734;7.086;2022-12-18T06:22:04;26.50;;;7.38;;
68800;SDS011;55784;50.734;7.086;2022-12-18T06:24:30;27.52;;;7.25;;
68800;SDS011;55784;50.734;7.086;2022-12-18T06:26:55;23.07;;;6.93;;
68800;SDS011;55784;50.734;7.086;2022-12-18T06:29:20;23.07;;;6.57;;
68800;SDS011;55784;50.734;7.086;2022-12-18T06:31:46;26.80;;;7.60;;
68800;SDS011;55784;50.734;7.086;2022-12-18T06:34:11;22.43;;;6.77;;
68800;SDS011;55784;50.734;7.086;2022-12-18T06:36:36;23.13;;;6.90;;
68800;SDS011;55784;50.734;7.086;2022-12-18T06:39:02;25.83;;;7.30;;
68800;SDS011;55784;50.734;7.086;2022-12-18T06:41:27;22.70;;;6.60;;
68800;SDS011;55784;50.734;7.086;2022-12-18T06:43:52;23.20;;;7.00;;
68800;SDS011;55784;50.734;7.086;2022-12-18T06:46:18;23.70;;;6.60;;
68800;SDS011;55784;50.734;7.086;2022-12-18T06:48:46;23.67;;;6.90;;
68800;SDS011;55784;50.734;7.086;2022-12-18T06:51:12;29.50;;;8.07;;
68800;SDS011;55784;50.734;7.086;2022-12-18T06:53:41;27.77;;;7.72;;
68800;SDS011;55784;50.734;7.086;2022-12-18T06:56:06;22.77;;;6.63;;
68800;SDS011;55784;50.734;7.086;2022-12-18T06:58:32;23.65;;;6.97;;
68800;SDS011;55784;50.734;7.086;2022-12-18T07:01:01;26.60;;;7.53;;
68800;SDS011;55784;50.734;7.086;2022-12-18T07:03:30;23.63;;;6.80;;
68800;SDS011;55784;50.734;7.086;2022-12-18T07:05:56;23.10;;;7.07;;
68800;SDS011;55784;50.734;7.086;2022-12-18T07:08:22;22.10;;;7.13;;
68800;SDS011;55784;50.734;7.086;2022-12-18T07:10:47;25.83;;;7.17;;
68800;SDS011;55784;50.734;7.086;2022-12-18T07:13:14;24.40;;;7.40;;
68800;SDS011;55784;50.734;7.086;2022-12-18T07:15:39;22.80;;;7.13;;
68800;SDS011;55784;50.734;7.086;2022-12-18T07:18:05;26.77;;;7.60;;
68800;SDS011;55784;50.734;7.086;2022-12-18T07:20:30;22.23;;;6.90;;
68800;SDS011;55784;50.734;7.086;2022-12-18T07:22:55;23.73;;;7.05;;
68800;SDS011;55784;50.734;7.086;2022-12-18T07:25:21;24.05;;;6.88;;
68800;SDS011;55784;50.734;7.086;2022-12-18T07:27:46;27.20;;;7.07;;
68800;SDS011;55784;50.734;7.086;2022-12-18T07:30:11;28.50;;;7.63;;
68800;SDS011;55784;50.734;7.086;2022-12-18T07:32:37;20.10;;;6.33;;
68800;SDS011;55784;50.734;7.086;2022-12-18T07:35:02;25.13;;;6.73;;
68800;SDS011;55784;50.734;7.086;2022-12-18T07:37:28;25.93;;;7.40;;
68800;SDS011;55784;50.734;7.086;2022-12-18T07:39:53;25.30;;;7.37;;
68800;SDS011;55784;50.734;7.086;2022-12-18T07:42:18;24.53;;;7.80;;
68800;SDS011;55784;50.734;7.086;2022-12-18T07:44:55;26.20;;;7.32;;
68800;SDS011;55784;50.734;7.086;2022-12-18T07:47:21;27.92;;;7.72;;
68800;SDS011;55784;50.734;7.086;2022-12-18T07:49:46;25.70;;;8.07;;
68800;SDS011;55784;50.734;7.086;2022-12-18T07:52:12;27.07;;;8.23;;
68800;SDS011;55784;50.734;7.086;2022-12-18T07:54:37;25.33;;;7.37;;
68800;SDS011;55784;50.734;7.086;2022-12-18T07:57:03;26.25;;;8.05;;
68800;SDS011;55784;50.734;7.086;2022-12-18T07:59:28;25.27;;;7.50;;
68800;SDS011;55784;50.734;7.086;2022-12-18T08:01:54;25.33;;;7.50;;
68800;SDS011;55784;50.734;7.086;2022-12-18T08:04:19;25.77;;;7.83;;
68800;SDS011;55784;50.734;7.086;2022-12-18T08:06:45;24.53;;;7.47;;
68800;SDS011;55784;50.734;7.086;2022-12-18T08:09:11;29.27;;;7.30;;
68800;SDS011;55784;50.734;7.086;2022-12-18T08:11:36;26.07;;;7.10;;
68800;SDS011;55784;50.734;7.086;2022-12-18T08:14:02;23.50;;;7.53;;
68800;SDS011;55784;50.734;7.086;2022-12-18T08:16:27;25.83;;;7.07;;
68800;SDS011;55784;50.734;7.086;2022-12-18T08:18:52;22.77;;;7.00;;
68800;SDS011;55784;50.734;7.086;2022-12-18T08:21:19;26.92;;;7.22;;
68800;SDS011;55784;50.734;7.086;2022-12-18T08:23:51;24.35;;;7.03;;
68800;SDS011;55784;50.734;7.086;2022-12-18T08:26:18;28.67;;;7.93;;
68800;SDS011;55784;50.734;7.086;2022-12-18T08:28:44;21.93;;;7.07;;
68800;SDS011;55784;50.734;7.086;2022-12-18T08:31:10;22.60;;;7.13;;
68800;SDS011;55784;50.734;7.086;2022-12-18T08:33:35;23.20;;;7.07;;
68800;SDS011;55784;50.734;7.086;2022-12-18T08:36:03;27.45;;;7.45;;
68800;SDS011;55784;50.734;7.086;2022-12-18T08:38:29;27.87;;;7.80;;
68800;SDS011;55784;50.734;7.086;2022-12-18T08:41:01;24.73;;;7.40;;
68800;SDS011;55784;50.734;7.086;2022-12-18T08:43:30;22.90;;;7.00;;
68800;SDS011;55784;50.734;7.086;2022-12-18T08:46:22;25.15;;;6.82;;
68800;SDS011;55784;50.734;7.086;2022-12-18T08:48:52;20.13;;;6.32;;
68800;SDS011;55784;50.734;7.086;2022-12-18T08:51:21;20.63;;;6.45;;
68800;SDS011;55784;50.734;7.086;2022-12-18T08:53:46;22.83;;;7.10;;
68800;SDS011;55784;50.734;7.086;2022-12-18T08:56:12;23.33;;;7.37;;
68800;SDS011;55784;50.734;7.086;2022-12-18T08:58:37;22.92;;;7.47;;
68800;SDS011;55784;50.734;7.086;2022-12-18T09:01:03;24.00;;;7.33;;
68800;SDS011;55784;50.734;7.086;2022-12-18T09:03:31;25.65;;;7.55;;
68800;SDS011;55784;50.734;7.086;2022-12-18T09:05:56;22.87;;;6.87;;
68800;SDS011;55784;50.734;7.086;2022-12-18T09:08:21;25.05;;;7.38;;
68800;SDS011;55784;50.734;7.086;2022-12-18T09:10:48;23.13;;;7.47;;
68800;SDS011;55784;50.734;7.086;2022-12-18T09:13:15;21.27;;;6.68;;
68800;SDS011;55784;50.734;7.086;2022-12-18T09:15:44;21.10;;;6.43;;
68800;SDS011;55784;50.734;7.086;2022-12-18T09:18:12;23.90;;;6.95;;
68800;SDS011;55784;50.734;7.086;2022-12-18T09:20:39;22.02;;;7.53;;
68800;SDS011;55784;50.734;7.086;2022-12-18T09:23:05;23.27;;;7.87;;
68800;SDS011;55784;50.734;7.086;2022-12-18T09:25:31;19.92;;;6.28;;
68800;SDS011;55784;50.734;7.086;2022-12-18T09:27:58;22.63;;;6.90;;
68800;SDS011;55784;50.734;7.086;2022-12-18T09:30:26;21.95;;;6.78;;
68800;SDS011;55784;50.734;7.086;2022-12-18T09:32:52;21.80;;;7.13;;
68800;SDS011;55784;50.734;7.086;2022-12-18T09:35:18;22.42;;;6.80;;
68800;SDS011;55784;50.734;7.086;2022-12-18T09:37:44;18.20;;;6.60;;
68800;SDS011;55784;50.734;7.086;2022-12-18T09:40:13;23.63;;;6.90;;
68800;SDS011;55784;50.734;7.086;2022-12-18T09:42:40;21.90;;;6.90;;
68800;SDS011;55784;50.734;7.086;2022-12-18T09:45:07;20.10;;;6.53;;
68800;SDS011;55784;50.734;7.086;2022-12-18T09:47:38;20.38;;;6.65;;
68800;SDS011;55784;50.734;7.086;2022-12-18T09:50:17;25.33;;;6.95;;
68800;SDS011;55784;50.734;7.086;2022-12-18T09:52:50;23.40;;;7.33;;
68800;SDS011;55784;50.734;7.086;2022-12-18T09:55:28;22.75;;;7.22;;
68800;SDS011;55784;50.734;7.086;2022-12-18T09:57:57;22.63;;;7.40;;
68800;SDS011;55784;50.734;7.086;2022-12-18T10:00:31;21.75;;;6.90;;
68800;SDS011;55784;50.734;7.086;2022-12-18T10:03:00;22.90;;;7.03;;
68800;SDS011;55784;50.734;7.086;2022-12-18T10:08:13;22.10;;;7.10;;
68800;SDS011;55784;50.734;7.086;2022-12-18T10:10:50;21.77;;;7.10;;
68800;SDS011;55784;50.734;7.086;2022-12-18T10:16:56;23.98;;;7.45;;
68800;SDS011;55784;50.734;7.086;2022-12-18T10:24:18;23.05;;;7.25;;
68800;SDS011;55784;50.734;7.086;2022-12-18T10:26:50;23.48;;;7.50;;
68800;SDS011;55784;50.734;7.086;2022-12-18T10:29:17;23.02;;;7.05;;
68800;SDS011;55784;50.734;7.086;2022-12-18T10:31:43;21.47;;;7.07;;
68800;SDS011;55784;50.734;7.086;2022-12-18T10:34:09;25.43;;;7.67;;
68800;SDS011;55784;50.734;7.086;2022-12-18T10:36:35;22.85;;;7.40;;
68800;SDS011;55784;50.734;7.086;2022-12-18T10:39:13;24.00;;;7.93;;
68800;SDS011;55784;50.734;7.086;2022-12-18T10:41:47;21.63;;;7.80;;
68800;SDS011;55784;50.734;7.086;2022-12-18T10:44:17;23.70;;;7.78;;
68800;SDS011;55784;50.734;7.086;2022-12-18T10:46:49;25.93;;;7.93;;
68800;SDS011;55784;50.734;7.086;2022-12-18T10:49:26;20.48;;;7.47;;
68800;SDS011;55784;50.734;7.086;2022-12-18T10:57:33;23.05;;;7.95;;
68800;SDS011;55784;50.734;7.086;2022-12-18T11:04:17;23.58;;;8.13;;
68800;SDS011;55784;50.734;7.086;2022-12-18T11:06:57;23.05;;;7.50;;
68800;SDS011;55784;50.734;7.086;2022-12-18T11:10:04;26.67;;;7.80;;
68800;SDS011;55784;50.734;7.086;2022-12-18T11:13:21;20.90;;;7.13;;
68800;SDS011;55784;50.734;7.086;2022-12-18T11:15:27;24.50;;;7.50;;
68800;SDS011;55784;50.734;7.086;2022-12-18T11:18:44;25.20;;;8.10;;
68800;SDS011;55784;50.734;7.086;2022-12-18T11:21:58;22.08;;;8.10;;
68800;SDS011;55784;50.734;7.086;2022-12-18T11:24:57;23.52;;;7.90;;
68800;SDS011;55784;50.734;7.086;2022-12-18T11:27:58;24.60;;;8.00;;
68800;SDS011;55784;50.734;7.086;2022-12-18T11:30:29;26.47;;;9.07;;
68800;SDS011;55784;50.734;7.086;2022-12-18T11:38:25;25.02;;;8.43;;
68800;SDS011;55784;50.734;7.086;2022-12-18T11:44:15;23.97;;;8.10;;
68800;SDS011;55784;50.734;7.086;2022-12-18T12:00:10;23.93;;;8.03;;
68800;SDS011;55784;50.734;7.086;2022-12-18T12:21:17;25.98;;;8.32;;
68800;SDS011;55784;50.734;7.086;2022-12-18T12:29:58;22.00;;;8.00;;
68800;SDS011;55784;50.734;7.086;2022-12-18T12:35:52;24.05;;;8.02;;
68800;SDS011;55784;50.734;7.086;2022-12-18T12:38:37;29.13;;;9.07;;
68800;SDS011;55784;50.734;7.086;2022-12-18T12:41:09;23.40;;;8.52;;
68800;SDS011;55784;50.734;7.086;2022-12-18T12:43:58;24.57;;;9.10;;
68800;SDS011;55784;50.734;7.086;2022-12-18T12:46:29;24.65;;;8.25;;
68800;SDS011;55784;50.734;7.086;2022-12-18T12:49:02;23.67;;;8.60;;
68800;SDS011;55784;50.734;7.086;2022-12-18T12:51:38;28.08;;;9.45;;
68800;SDS011;55784;50.734;7.086;2022-12-18T12:54:17;25.65;;;8.95;;
68800;SDS011;55784;50.734;7.086;2022-12-18T13:02:18;22.67;;;8.35;;
68800;SDS011;55784;50.734;7.086;2022-12-18T13:04:59;26.70;;;9.77;;
68800;SDS011;55784;50.734;7.086;2022-12-18T13:07:33;28.42;;;9.45;;
68800;SDS011;55784;50.734;7.086;2022-12-18T13:13:06;26.92;;;9.02;;
68800;SDS011;55784;50.734;7.086;2022-12-18T13:18:11;31.23;;;10.32;;
68800;SDS011;55784;50.734;7.086;2022-12-18T13:20:47;28.70;;;9.65;;
68800;SDS011;55784;50.734;7.086;2022-12-18T13:25:51;27.63;;;9.07;;
68800;SDS011;55784;50.734;7.086;2022-12-18T13:28:20;26.70;;;9.57;;
68800;SDS011;55784;50.734;7.086;2022-12-18T13:35:41;25.97;;;9.27;;
68800;SDS011;55784;50.734;7.086;2022-12-18T13:40:53;25.27;;;9.25;;
68800;SDS011;55784;50.734;7.086;2022-12-18T13:46:29;27.30;;;8.63;;
68800;SDS011;55784;50.734;7.086;2022-12-18T13:51:39;28.20;;;9.93;;
68800;SDS011;55784;50.734;7.086;2022-12-18T13:57:00;28.35;;;9.52;;
68800;SDS011;55784;50.734;7.086;2022-12-18T13:59:37;30.38;;;10.15;;
68800;SDS011;55784;50.734;7.086;2022-12-18T14:04:38;25.67;;;9.87;;
68800;SDS011;55784;50.734;7.086;2022-12-18T14:07:10;27.02;;;9.20;;
68800;SDS011;55784;50.734;7.086;2022-12-18T14:09:42;27.25;;;10.07;;
68800;SDS011;55784;50.734;7.086;2022-12-18T14:12:20;28.95;;;9.45;;
68800;SDS011;55784;50.734;7.086;2022-12-18T14:17:53;27.27;;;9.90;;
68800;SDS011;55784;50.734;7.086;2022-12-18T14:20:28;29.17;;;9.63;;
68800;SDS011;55784;50.734;7.086;2022-12-18T14:25:34;26.00;;;9.35;;
68800;SDS011;55784;50.734;7.086;2022-12-18T14:28:14;28.33;;;9.82;;
68800;SDS011;55784;50.734;7.086;2022-12-18T14:41:50;27.17;;;9.32;;
68800;SDS011;55784;50.734;7.086;2022-12-18T16:55:04;32.80;;;10.57;;
68800;SDS011;55784;50.734;7.086;2022-12-18T16:57:29;33.72;;;11.13;;
68800;SDS011;55784;50.734;7.086;2022-12-18T16:59:55;33.33;;;11.10;;
68800;SDS011;55784;50.734;7.086;2022-12-18T17:02:21;32.53;;;10.90;;
68800;SDS011;55784;50.734;7.086;2022-12-18T17:04:49;32.17;;;11.13;;
68800;SDS011;55784;50.734;7.086;2022-12-18T17:07:17;33.28;;;11.45;;
68800;SDS011;55784;50.734;7.086;2022-12-18T17:09:42;34.33;;;10.93;;
68800;SDS011;55784;50.734;7.086;2022-12-18T17:12:07;32.57;;;12.00;;
68800;SDS011;55784;50.734;7.086;2022-12-18T17:14:33;33.92;;;11.13;;
68800;SDS011;55784;50.734;7.086;2022-12-18T17:16:59;31.45;;;10.43;;
68800;SDS011;55784;50.734;7.086;2022-12-18T17:19:25;30.93;;;11.07;;
68800;SDS011;55784;50.734;7.086;2022-12-18T17:21:51;32.40;;;10.77;;
68800;SDS011;55784;50.734;7.086;2022-12-18T17:24:17;29.98;;;10.80;;
68800;SDS011;55784;50.734;7.086;2022-12-18T17:26:44;36.17;;;12.05;;
68800;SDS011;55784;50.734;7.086;2022-12-18T17:29:13;34.03;;;10.87;;
68800;SDS011;55784;50.734;7.086;2022-12-18T17:31:42;31.73;;;10.70;;
68800;SDS011;55784;50.734;7.086;2022-12-18T17:34:08;33.50;;;11.00;;
68800;SDS011;55784;50.734;7.086;2022-12-18T17:36:35;32.83;;;11.32;;
68800;SDS011;55784;50.734;7.086;2022-12-18T17:39:01;35.87;;;12.10;;
68800;SDS011;55784;50.734;7.086;2022-12-18T17:41:27;34.90;;;10.90;;
68800;SDS011;55784;50.734;7.086;2022-12-18T17:43:54;34.70;;;11.52;;
68800;SDS011;55784;50.734;7.086;2022-12-18T17:46:28;37.40;;;11.82;;
68800;SDS011;55784;50.734;7.086;2022-12-18T17:48:55;37.13;;;11.35;;
68800;SDS011;55784;50.734;7.086;2022-12-18T17:51:21;36.67;;;11.80;;
68800;SDS011;55784;50.734;7.086;2022-12-18T17:53:47;34.93;;;11.47;;
68800;SDS011;55784;50.734;7.086;2022-12-18T17:56:13;35.58;;;12.05;;
68800;SDS011;55784;50.734;7.086;2022-12-18T17:58:42;35.53;;;11.32;;
68800;SDS011;55784;50.734;7.086;2022-12-18T18:01:08;35.87;;;12.23;;
68800;SDS011;55784;50.734;7.086;2022-12-18T18:03:37;38.30;;;11.80;;
68800;SDS011;55784;50.734;7.086;2022-12-18T18:06:03;34.70;;;11.97;;
68800;SDS011;55784;50.734;7.086;2022-12-18T18:08:29;34.85;;;11.93;;
68800;SDS011;55784;50.734;7.086;2022-12-18T18:10:56;31.17;;;11.85;;
68800;SDS011;55784;50.734;7.086;2022-12-18T18:13:41;38.80;;;11.77;;
68800;SDS011;55784;50.734;7.086;2022-12-18T18:16:26;36.07;;;11.17;;
68800;SDS011;55784;50.734;7.086;2022-12-18T18:18:57;35.50;;;11.85;;
68800;SDS011;55784;50.734;7.086;2022-12-18T18:21:23;36.40;;;12.57;;
68800;SDS011;55784;50.734;7.086;2022-12-18T18:23:49;36.57;;;11.73;;
68800;SDS011;55784;50.734;7.086;2022-12-18T18:26:14;31.83;;;11.17;;
68800;SDS011;55784;50.734;7.086;2022-12-18T18:28:39;34.85;;;11.32;;
68800;SDS011;55784;50.734;7.086;2022-12-18T18:31:05;33.53;;;11.40;;
68800;SDS011;55784;50.734;7.086;2022-12-18T18:33:34;34.92;;;11.07;;
68800;SDS011;55784;50.734;7.086;2022-12-18T18:36:00;33.30;;;10.80;;
68800;SDS011;55784;50.734;7.086;2022-12-18T18:38:25;36.23;;;11.43;;
68800;SDS011;55784;50.734;7.086;2022-12-18T18:40:58;37.35;;;10.77;;
68800;SDS011;55784;50.734;7.086;2022-12-18T18:43:24;35.25;;;11.13;;
68800;SDS011;55784;50.734;7.086;2022-12-18T18:45:54;32.87;;;10.77;;
68800;SDS011;55784;50.734;7.086;2022-12-18T18:48:23;36.65;;;11.57;;
68800;SDS011;55784;50.734;7.086;2022-12-18T18:50:56;40.55;;;13.13;;
68800;SDS011;55784;50.734;7.086;2022-12-18T18:53:28;34.95;;;11.38;;
68800;SDS011;55784;50.734;7.086;2022-12-18T18:55:56;32.23;;;10.83;;
68800;SDS011;55784;50.734;7.086;2022-12-18T18:58:22;41.15;;;15.13;;
68800;SDS011;55784;50.734;7.086;2022-12-18T19:01:09;33.37;;;11.00;;
68800;SDS011;55784;50.734;7.086;2022-12-18T19:03:37;33.78;;;10.88;;
68800;SDS011;55784;50.734;7.086;2022-12-18T19:06:04;33.05;;;11.43;;
68800;SDS011;55784;50.734;7.086;2022-12-18T19:08:32;32.95;;;11.45;;
68800;SDS011;55784;50.734;7.086;2022-12-18T19:11:00;30.27;;;11.33;;
68800;SDS011;55784;50.734;7.086;2022-12-18T19:13:27;37.47;;;11.52;;
68800;SDS011;55784;50.734;7.086;2022-12-18T19:16:04;40.08;;;11.15;;
68800;SDS011;55784;50.734;7.086;2022-12-18T19:18:32;36.20;;;10.80;;
68800;SDS011;55784;50.734;7.086;2022-12-18T19:20:58;34.77;;;11.50;;
68800;SDS011;55784;50.734;7.086;2022-12-18T19:23:25;36.88;;;11.02;;
68800;SDS011;55784;50.734;7.086;2022-12-18T19:25:53;39.05;;;11.38;;
68800;SDS011;55784;50.734;7.086;2022-12-18T19:28:20;35.70;;;11.17;;